Riversville, Missouri
Current Conditions -  °F | °C
As of 7:54 AM on Monday 24 Nov 2014 (Local Time) from KCOU Reporting Station
Overcast Overcast  
Wind Chill: 25°   Ceiling: 4000
Heat Index: 35°   Visibility: 10mi
Dew Point: 26°   Wind: 16mph
Humidity: 70%   Direction: 270°W
Pressure: 29.6"   Gusts: 32mph
Location:  39.1882°N, 91.8924°W
Report Text: KCOU 241354Z 27014G28KT 10SM OVC040 02/M03 A2960 RMK AO2 PK WND 28028/1347 SLP027 T00171033
Loading
Personal Weather Stations






























Interactive Weather Map New forecast layout! Learn more

10-Day Weather Forecast

Advertisements
Track Severe Weather on mobile